Time;durP1;ratioP1;P1;durP2;ratioP2;P2;SDS_P1;SDS_P2;PMS_P1;PMS_P2;Temp;Humidity;BMP_temperature;BMP_pressure;BME280_temperature;BME280_humidity;BME280_pressure;Samples;Min_cycle;Max_cycle;Signal;HPM_P1;HPM_P2
2022/06/20 00:00:57;;;;;;;6.94;3.98;;;;;;;19.96;60.62;100833.32;463922;114;922603;-76
2022/06/20 00:02:00;;;;;;;5.59;3.61;;;;;;;19.94;60.66;100830.01;463664;114;922576;-75
2022/06/20 00:03:04;;;;;;;4.78;3.77;;;;;;;19.94;60.52;100830.01;463858;114;922766;-75
2022/06/20 00:04:11;;;;;;;3.87;3.43;;;;;;;19.93;60.55;100837.48;463617;114;922816;-74
2022/06/20 00:05:17;;;;;;;4.72;3.86;;;;;;;19.92;60.45;100835.80;463311;114;923073;-74
2022/06/20 00:06:23;;;;;;;4.58;3.77;;;;;;;19.91;60.39;100834.14;463628;114;922529;-77
2022/06/20 00:07:26;;;;;;;9.13;3.99;;;;;;;19.90;60.35;100838.00;463604;114;923053;-74
2022/06/20 00:08:30;;;;;;;5.79;3.34;;;;;;;19.91;60.26;100825.00;463727;114;922579;-73
2022/06/20 00:09:33;;;;;;;4.61;3.48;;;;;;;19.91;60.22;100827.77;463789;114;922909;-73
2022/06/20 00:10:38;;;;;;;3.48;3.17;;;;;;;19.90;60.21;100838.00;463758;114;922525;-75
2022/06/20 00:11:44;;;;;;;4.54;3.63;;;;;;;19.91;60.15;100825.83;463604;114;922846;-75
2022/06/20 00:12:48;;;;;;;3.90;3.54;;;;;;;19.91;60.16;100839.67;463503;114;923306;-75
2022/06/20 00:13:54;;;;;;;5.76;3.82;;;;;;;19.91;60.12;100828.60;463578;114;922837;-76
2022/06/20 00:14:59;;;;;;;3.46;3.02;;;;;;;19.92;60.07;100833.04;463592;114;922945;-74
2022/06/20 00:16:03;;;;;;;4.62;3.67;;;;;;;19.93;60.04;100833.87;463563;114;923012;-75
2022/06/20 00:17:14;;;;;;;5.11;3.47;;;;;;;19.92;60.04;100833.04;463658;114;922590;-74
2022/06/20 00:18:18;;;;;;;3.99;3.08;;;;;;;19.93;59.96;100831.11;463525;114;922639;-75
2022/06/20 00:19:21;;;;;;;4.92;3.23;;;;;;;19.93;59.92;100833.87;463658;114;922532;-76
2022/06/20 00:20:24;;;;;;;3.62;3.07;;;;;;;19.91;59.89;100833.30;463794;114;923502;-75
2022/06/20 00:21:27;;;;;;;3.94;3.44;;;;;;;19.90;59.84;100832.47;463765;114;922585;-74
2022/06/20 00:22:30;;;;;;;6.49;3.52;;;;;;;19.88;59.83;100842.99;463724;114;922536;-74
2022/06/20 00:23:33;;;;;;;4.41;3.21;;;;;;;19.88;59.84;100836.63;455488;116;922662;-75
2022/06/20 00:24:36;;;;;;;4.34;3.50;;;;;;;19.86;59.88;100836.88;455902;114;930695;-76
2022/06/20 00:25:39;;;;;;;7.00;3.56;;;;;;;19.84;59.89;100835.51;463801;114;922904;-75
2022/06/20 00:26:42;;;;;;;4.71;3.29;;;;;;;19.83;59.94;100839.38;463711;114;922530;-74
2022/06/20 00:27:46;;;;;;;4.30;3.37;;;;;;;19.82;59.94;100833.00;463675;114;930503;-75
2022/06/20 00:28:49;;;;;;;6.37;3.84;;;;;;;19.81;59.98;100831.33;463643;114;923130;-75
2022/06/20 00:29:52;;;;;;;5.69;3.89;;;;;;;19.81;59.99;100836.03;463782;113;930482;-74
2022/06/20 00:30:55;;;;;;;8.86;3.99;;;;;;;19.78;60.04;100836.58;463763;114;922583;-75
2022/06/20 00:31:59;;;;;;;4.19;3.84;;;;;;;19.77;60.14;100829.38;463736;114;922558;-75
2022/06/20 00:33:03;;;;;;;5.89;3.94;;;;;;;19.75;60.20;100837.10;463758;114;922556;-75
2022/06/20 00:34:06;;;;;;;10.07;4.56;;;;;;;19.73;60.27;100828.26;463608;113;922892;-75
2022/06/20 00:35:09;;;;;;;4.22;3.83;;;;;;;19.72;60.44;100829.36;463746;114;922825;-75
2022/06/20 00:36:13;;;;;;;4.41;3.85;;;;;;;19.70;60.35;100829.61;463643;114;923474;-75
2022/06/20 00:37:19;;;;;;;5.26;3.81;;;;;;;19.70;60.40;100829.61;463747;114;922875;-75
2022/06/20 00:38:23;;;;;;;4.87;3.87;;;;;;;19.69;60.45;100824.34;463568;114;922543;-74
2022/06/20 00:39:26;;;;;;;4.73;3.58;;;;;;;19.68;60.45;100814.41;463669;114;923270;-74
2022/06/20 00:40:36;;;;;;;5.74;3.73;;;;;;;19.68;60.45;100819.94;463701;114;922909;-75
2022/06/20 00:41:39;;;;;;;5.59;4.35;;;;;;;19.68;60.44;100822.70;462449;114;922584;-74
2022/06/20 00:42:42;;;;;;;6.06;4.22;;;;;;;19.68;60.46;100819.94;463820;114;922607;-75
2022/06/20 00:43:48;;;;;;;5.16;3.98;;;;;;;19.66;60.48;100819.36;463748;113;922494;-75
2022/06/20 00:44:54;;;;;;;4.84;4.01;;;;;;;19.64;60.46;100814.09;463555;114;922657;-74
2022/06/20 00:46:01;;;;;;;5.13;4.04;;;;;;;19.65;60.47;100814.92;463599;114;922631;-74
2022/06/20 00:47:07;;;;;;;5.05;3.98;;;;;;;19.64;60.47;100813.25;463585;114;922586;-75
2022/06/20 00:48:16;;;;;;;4.92;4.03;;;;;;;19.65;60.47;100821.30;463487;114;922547;-75
2022/06/20 00:49:32;;;;;;;4.85;4.23;;;;;;;19.66;60.45;100811.06;463253;113;923154;-75
2022/06/20 00:50:35;;;;;;;5.85;4.82;;;;;;;19.64;60.52;100813.25;463554;114;922625;-75
2022/06/20 00:51:51;;;;;;;6.74;4.20;;;;;;;19.64;60.48;100816.02;463664;114;922506;-74
2022/06/20 00:53:04;;;;;;;5.46;4.23;;;;;;;19.63;60.52;100808.84;463524;114;922581;-74
2022/06/20 00:54:13;;;;;;;5.55;4.58;;;;;;;19.63;60.52;100809.66;463158;114;922977;-76
2022/06/20 00:55:33;;;;;;;5.45;4.16;;;;;;;19.74;60.53;100816.90;477080;110;946948;-75
2022/06/20 00:56:42;;;;;;;5.69;4.44;;;;;;;19.63;60.50;100809.66;458170;115;923170;-75
2022/06/20 00:58:04;;;;;;;5.14;3.95;;;;;;;19.62;60.50;100808.02;459052;114;922641;-75
2022/06/20 00:59:10;;;;;;;4.72;4.19;;;;;;;19.62;60.50;100810.78;459235;113;922636;-76
2022/06/20 01:00:18;;;;;;;4.93;4.27;;;;;;;19.62;60.61;100807.18;457211;116;922929;-76
2022/06/20 01:01:25;;;;;;;9.03;4.37;;;;;;;19.62;60.50;100807.18;457361;116;923313;-74
2022/06/20 01:02:34;;;;;;;4.98;4.09;;;;;;;19.60;60.45;100804.67;457306;115;923031;-74
2022/06/20 01:03:41;;;;;;;5.79;4.44;;;;;;;19.60;60.39;100809.37;457325;114;922487;-75
2022/06/20 01:04:53;;;;;;;6.76;4.56;;;;;;;19.56;60.36;100807.16;457324;116;922890;-76
2022/06/20 01:06:11;;;;;;;7.67;4.42;;;;;;;19.65;60.38;100809.39;482452;110;946925;-76
2022/06/20 01:07:26;;;;;;;5.52;3.71;;;;;;;19.53;60.40;100815.14;473774;112;922558;-76
2022/06/20 01:08:33;;;;;;;4.91;4.27;;;;;;;19.49;60.49;100820.38;473015;112;922548;-76
2022/06/20 01:09:39;;;;;;;6.64;3.94;;;;;;;19.46;60.43;100817.33;452393;114;922887;-75
2022/06/20 01:10:55;;;;;;;6.44;4.39;;;;;;;19.43;60.47;100812.28;465334;114;922614;-76
2022/06/20 01:12:03;;;;;;;5.88;3.81;;;;;;;19.41;60.50;100811.71;465381;114;923292;-76
2022/06/20 01:13:10;;;;;;;8.62;4.61;;;;;;;19.38;60.57;100815.86;465422;114;923106;-74
2022/06/20 01:14:34;;;;;;;4.90;4.02;;;;;;;19.36;60.66;100814.45;465401;113;922574;-74
2022/06/20 01:15:40;;;;;;;5.32;3.88;;;;;;;19.34;60.76;100811.97;465395;114;922601;-75
2022/06/20 01:16:44;;;;;;;6.14;3.82;;;;;;;19.31;60.72;100823.55;465407;114;923044;-76
2022/06/20 01:17:49;;;;;;;6.40;4.75;;;;;;;19.28;60.81;100824.09;465643;113;922534;-75
2022/06/20 01:18:55;;;;;;;5.07;3.67;;;;;;;19.28;60.84;100820.49;465410;113;922912;-76
2022/06/20 01:20:17;;;;;;;5.48;4.27;;;;;;;19.28;60.88;100820.49;465377;114;922475;-76
2022/06/20 01:21:23;;;;;;;7.13;4.15;;;;;;;19.27;60.95;100814.13;465437;114;923149;-75
2022/06/20 01:22:44;;;;;;;4.94;4.04;;;;;;;19.26;61.02;100820.75;465379;114;922843;-75
2022/06/20 01:23:57;;;;;;;4.99;4.32;;;;;;;19.26;61.04;100822.68;465365;113;922561;-76
2022/06/20 01:25:24;;;;;;;5.28;3.73;;;;;;;19.27;61.05;100816.06;465357;114;923014;-75
2022/06/20 01:26:34;;;;;;;5.00;3.83;;;;;;;19.26;61.11;100823.52;465386;114;922591;-76
2022/06/20 01:27:40;;;;;;;5.51;4.11;;;;;;;19.24;61.17;100825.70;465404;114;923124;-75
2022/06/20 01:28:47;;;;;;;4.78;4.12;;;;;;;19.25;61.21;100823.77;465377;113;922636;-75
2022/06/20 01:29:50;;;;;;;8.30;4.76;;;;;;;19.26;61.22;100828.21;464818;114;922990;-76
2022/06/20 01:30:53;;;;;;;4.65;3.87;;;;;;;19.26;61.17;100820.75;465565;114;922634;-75
2022/06/20 01:31:58;;;;;;;5.48;3.96;;;;;;;19.26;61.10;100828.21;465444;114;922517;-75
2022/06/20 01:33:01;;;;;;;6.48;4.18;;;;;;;19.25;61.04;100823.77;465009;114;922570;-75
2022/06/20 01:34:04;;;;;;;4.81;3.72;;;;;;;19.23;61.06;100826.83;456732;115;922608;-75
2022/06/20 01:35:11;;;;;;;5.36;3.77;;;;;;;19.24;61.10;100830.43;450027;117;923146;-76
2022/06/20 01:37:42;;;;;;;4.92;4.14;;;;;;;19.23;61.02;100828.75;451522;117;922617;-76
2022/06/20 01:38:46;;;;;;;5.93;3.84;;;;;;;19.20;61.02;100832.88;465353;113;922619;-76
2022/06/20 01:39:53;;;;;;;5.44;3.51;;;;;;;19.18;61.05;100826.80;465426;114;922587;-76
2022/06/20 01:42:20;;;;;;;4.42;3.48;;;;;;;19.14;61.05;100822.88;465395;114;922680;-75
2022/06/20 01:43:23;;;;;;;6.22;3.68;;;;;;;19.12;61.09;100825.09;465417;114;922587;-76
2022/06/20 01:44:26;;;;;;;8.16;3.82;;;;;;;19.11;61.17;100826.18;465502;114;930507;-76
2022/06/20 01:46:50;;;;;;;4.23;3.28;;;;;;;19.12;61.30;100830.62;465381;114;922427;-75
2022/06/20 01:47:56;;;;;;;3.94;3.53;;;;;;;19.14;61.31;100831.16;465595;114;923009;-76
2022/06/20 01:49:02;;;;;;;6.67;3.25;;;;;;;19.14;61.30;100826.47;465411;113;922650;-74
2022/06/20 01:50:07;;;;;;;4.39;3.52;;;;;;;19.13;61.29;100824.80;465372;114;923514;-75
2022/06/20 01:51:19;;;;;;;5.49;3.66;;;;;;;19.14;61.32;100826.47;465448;114;922487;-74
2022/06/20 01:52:26;;;;;;;5.79;3.89;;;;;;;19.16;61.29;100831.74;465124;114;922574;-74
2022/06/20 01:53:32;;;;;;;4.91;3.34;;;;;;;19.17;61.27;100833.41;462939;114;922461;-75
2022/06/20 01:54:42;;;;;;;4.49;3.64;;;;;;;19.18;61.22;100832.33;465398;114;923119;-75
2022/06/20 01:55:48;;;;;;;4.42;3.03;;;;;;;19.19;61.29;100833.97;465216;114;923020;-75
2022/06/20 01:56:52;;;;;;;3.71;3.32;;;;;;;19.20;61.37;100830.11;465369;114;922626;-75
2022/06/20 01:58:02;;;;;;;4.72;3.19;;;;;;;19.21;61.37;100834.55;465512;114;922663;-75
2022/06/20 01:59:08;;;;;;;4.98;3.93;;;;;;;19.22;61.37;100833.45;464754;113;922517;-75
2022/06/20 02:00:18;;;;;;;4.19;3.45;;;;;;;19.23;61.33;100832.36;465379;114;922952;-75
2022/06/20 02:01:22;;;;;;;4.76;3.23;;;;;;;19.23;61.28;100835.12;465401;114;922575;-75
2022/06/20 02:02:27;;;;;;;4.34;3.26;;;;;;;19.25;61.24;100840.36;465534;114;922751;-74
2022/06/20 02:03:33;;;;;;;4.44;3.11;;;;;;;19.23;61.24;100835.12;465469;113;922516;-75
2022/06/20 02:04:37;;;;;;;5.16;3.48;;;;;;;19.23;61.28;100829.59;465392;114;930578;-76
2022/06/20 02:05:43;;;;;;;7.24;3.32;;;;;;;19.23;61.33;100826.83;465531;113;922646;-76
2022/06/20 02:06:52;;;;;;;5.15;3.68;;;;;;;19.24;61.22;100831.23;465390;114;923038;-76
2022/06/20 02:07:55;;;;;;;5.53;3.61;;;;;;;19.23;61.19;100825.99;464785;114;922521;-76
2022/06/20 02:08:59;;;;;;;4.52;3.69;;;;;;;19.22;61.08;100832.61;465356;113;923169;-75
2022/06/20 02:10:05;;;;;;;4.80;3.81;;;;;;;19.19;61.10;100828.44;465465;114;923054;-76
2022/06/20 02:11:14;;;;;;;4.33;3.56;;;;;;;19.18;61.13;100837.02;465345;114;922602;-77
2022/06/20 02:12:18;;;;;;;4.68;3.57;;;;;;;19.16;61.24;100838.11;464845;114;922897;-76
2022/06/20 02:13:25;;;;;;;3.85;3.45;;;;;;;19.13;61.27;100837.81;465506;114;922533;-76
2022/06/20 02:14:37;;;;;;;4.84;3.43;;;;;;;19.13;61.30;100838.62;464734;114;922639;-75
2022/06/20 02:15:42;;;;;;;3.60;3.29;;;;;;;19.11;61.36;100842.77;465323;114;922956;-76
2022/06/20 02:16:49;;;;;;;3.90;3.52;;;;;;;19.12;61.47;100844.44;465368;114;922613;-76
2022/06/20 02:17:53;;;;;;;4.27;3.51;;;;;;;19.11;61.37;100848.30;465129;114;930669;-76
2022/06/20 02:18:59;;;;;;;4.97;3.39;;;;;;;19.10;61.41;100849.38;465374;113;922645;-76
2022/06/20 02:20:06;;;;;;;5.30;3.80;;;;;;;19.10;61.41;100849.38;465314;114;922969;-75
2022/06/20 02:21:12;;;;;;;3.81;3.44;;;;;;;19.09;61.35;100854.08;465273;114;922860;-75
2022/06/20 02:22:17;;;;;;;4.74;3.94;;;;;;;19.09;61.37;100851.31;464411;114;922614;-75
2022/06/20 02:23:24;;;;;;;4.11;3.30;;;;;;;19.09;61.35;100851.31;465315;114;922659;-76
2022/06/20 02:24:30;;;;;;;4.78;3.98;;;;;;;19.10;61.42;100852.98;465278;114;922558;-75
2022/06/20 02:25:35;;;;;;;5.07;4.12;;;;;;;19.12;61.42;100855.49;465212;114;923579;-75
2022/06/20 02:26:39;;;;;;;4.83;3.74;;;;;;;19.12;61.46;100855.49;465312;114;922517;-76
2022/06/20 02:27:47;;;;;;;6.01;3.94;;;;;;;19.12;61.48;100866.55;465375;114;922612;-75
2022/06/20 02:28:59;;;;;;;4.27;3.62;;;;;;;19.11;61.58;100862.11;464922;112;922541;-75
2022/06/20 02:30:03;;;;;;;6.21;4.29;;;;;;;19.11;61.60;100859.35;463328;114;922797;-76
2022/06/20 02:31:07;;;;;;;4.59;3.89;;;;;;;19.11;61.60;100853.82;465413;113;923048;-76
2022/06/20 02:32:19;;;;;;;5.28;3.32;;;;;;;19.12;61.65;100855.49;467709;113;922753;-75
2022/06/20 02:33:25;;;;;;;6.61;4.04;;;;;;;19.12;61.61;100861.02;465277;114;922563;-76
2022/06/20 02:34:30;;;;;;;5.23;3.30;;;;;;;19.14;61.63;100864.33;470771;112;922500;-74
2022/06/20 02:35:33;;;;;;;4.66;3.84;;;;;;;19.14;61.65;100870.70;471178;112;922992;-75
2022/06/20 02:36:36;;;;;;;4.17;3.71;;;;;;;19.15;61.63;100869.61;471356;112;930675;-75
2022/06/20 02:37:39;;;;;;;4.48;4.10;;;;;;;19.17;61.60;100866.59;471468;112;922647;-75
2022/06/20 02:38:44;;;;;;;5.41;3.57;;;;;;;19.18;61.61;100870.19;471414;112;922537;-75
2022/06/20 02:39:49;;;;;;;5.84;4.11;;;;;;;19.19;61.60;100864.37;471259;112;922649;-75
2022/06/20 02:40:55;;;;;;;4.66;3.66;;;;;;;19.20;61.56;100866.05;471113;112;930602;-75
2022/06/20 02:42:04;;;;;;;4.48;3.75;;;;;;;19.21;61.55;100870.48;471188;112;923452;-74
2022/06/20 02:43:27;;;;;;;3.72;3.43;;;;;;;19.24;61.56;100869.12;471227;112;923079;-76
2022/06/20 02:44:31;;;;;;;4.51;4.11;;;;;;;19.25;61.59;100868.84;470974;112;923041;-75
2022/06/20 02:45:36;;;;;;;5.39;4.01;;;;;;;19.27;61.53;100871.35;471274;112;922885;-75
2022/06/20 02:46:41;;;;;;;5.39;4.19;;;;;;;19.29;61.50;100866.41;471237;112;922893;-74
2022/06/20 02:47:53;;;;;;;3.68;3.27;;;;;;;19.31;61.48;100866.95;471268;112;922981;-74
2022/06/20 02:48:57;;;;;;;5.06;3.99;;;;;;;19.32;61.43;100868.63;471074;112;922633;-75
2022/06/20 02:50:02;;;;;;;6.38;3.72;;;;;;;19.34;61.38;100864.51;471335;112;922577;-75
2022/06/20 02:51:08;;;;;;;5.96;3.83;;;;;;;19.35;61.33;100866.15;471215;112;922593;-75
2022/06/20 02:52:14;;;;;;;4.54;3.82;;;;;;;19.38;61.26;100873.09;471226;112;922469;-75
2022/06/20 02:53:33;;;;;;;4.28;3.46;;;;;;;19.38;61.26;100871.16;471173;112;923097;-75
2022/06/20 02:54:38;;;;;;;6.68;3.91;;;;;;;19.40;61.21;100874.51;470599;112;922906;-74
2022/06/20 02:55:42;;;;;;;6.09;4.22;;;;;;;19.41;61.18;100881.67;471235;112;923781;-75
2022/06/20 02:56:54;;;;;;;3.85;3.52;;;;;;;19.43;60.90;100879.49;471394;112;922636;-77
2022/06/20 02:58:00;;;;;;;4.76;3.55;;;;;;;19.43;60.90;100879.49;471216;112;922609;-75
2022/06/20 02:59:13;;;;;;;8.28;4.32;;;;;;;19.47;61.05;100874.28;471168;112;922565;-75
2022/06/20 03:00:22;;;;;;;4.72;4.32;;;;;;;19.48;61.00;100876.79;471065;112;923038;-76
2022/06/20 03:01:28;;;;;;;6.63;4.61;;;;;;;19.51;60.92;100872.67;471242;112;922902;-76
2022/06/20 03:02:35;;;;;;;8.41;5.45;;;;;;;19.52;60.83;100877.91;470242;112;922512;-76
2022/06/20 03:03:41;;;;;;;6.21;4.83;;;;;;;19.54;60.77;100878.49;471894;112;922569;-74
2022/06/20 03:04:45;;;;;;;6.60;5.13;;;;;;;19.56;60.76;100875.47;471938;112;922524;-76
2022/06/20 03:05:48;;;;;;;5.54;4.59;;;;;;;19.58;60.73;100876.02;471935;112;922313;-75
2022/06/20 03:06:58;;;;;;;5.96;5.28;;;;;;;19.60;60.68;100872.98;466794;112;922361;-76
2022/06/20 03:08:01;;;;;;;5.35;4.86;;;;;;;19.62;60.61;100877.17;466643;114;922483;-76
2022/06/20 03:09:04;;;;;;;5.17;4.68;;;;;;;19.65;60.55;100873.02;466904;114;922439;-74
2022/06/20 03:10:14;;;;;;;6.29;4.45;;;;;;;19.67;60.60;100881.89;467044;114;922135;-74
2022/06/20 03:11:17;;;;;;;5.00;4.60;;;;;;;19.69;60.48;100871.37;461674;114;922277;-74
2022/06/20 03:12:20;;;;;;;7.49;4.79;;;;;;;19.72;60.49;100887.45;467122;114;922475;-74
2022/06/20 03:13:24;;;;;;;5.05;4.38;;;;;;;19.73;60.47;100886.36;467228;114;922927;-75
2022/06/20 03:14:30;;;;;;;5.18;4.26;;;;;;;19.74;60.44;100893.53;467228;114;922200;-75
2022/06/20 03:15:36;;;;;;;5.13;4.67;;;;;;;19.75;60.37;100892.44;458712;116;922834;-75
2022/06/20 03:16:39;;;;;;;8.83;4.84;;;;;;;19.77;60.38;100893.02;459253;114;922208;-74
2022/06/20 03:17:47;;;;;;;7.59;4.47;;;;;;;19.77;60.38;100890.25;467142;114;922157;-74
2022/06/20 03:18:50;;;;;;;3.98;3.67;;;;;;;19.78;60.35;100891.92;466949;114;922315;-75
2022/06/20 03:19:56;;;;;;;5.08;3.96;;;;;;;19.76;60.39;100878.34;467054;114;922120;-76
2022/06/20 03:21:00;;;;;;;5.10;4.53;;;;;;;19.77;60.53;100881.95;466962;114;922384;-76
2022/06/20 03:22:06;;;;;;;4.44;3.96;;;;;;;19.79;60.45;100880.56;466962;114;922510;-75
2022/06/20 03:23:13;;;;;;;4.00;3.67;;;;;;;19.80;60.48;100878.63;466810;114;922305;-77
2022/06/20 03:24:21;;;;;;;4.99;4.33;;;;;;;19.80;60.48;100882.23;466805;114;922434;-77
2022/06/20 03:25:25;;;;;;;4.82;3.59;;;;;;;19.82;60.53;100880.05;463334;114;922215;-77
2022/06/20 03:26:28;;;;;;;5.34;4.46;;;;;;;19.85;60.55;100881.42;463576;114;922511;-75
2022/06/20 03:27:35;;;;;;;9.11;4.22;;;;;;;19.86;60.58;100881.16;464294;113;922355;-74
2022/06/20 03:28:38;;;;;;;4.41;3.95;;;;;;;19.88;60.54;100886.44;466146;113;922761;-75
2022/06/20 03:29:44;;;;;;;4.35;3.89;;;;;;;19.89;60.53;100882.57;452277;117;922422;-76
2022/06/20 03:30:48;;;;;;;4.55;3.68;;;;;;;19.92;60.53;100887.55;454140;117;922387;-76
2022/06/20 03:31:53;;;;;;;4.41;3.65;;;;;;;19.91;60.53;100889.48;454253;117;922349;-75
2022/06/20 03:32:58;;;;;;;6.51;3.45;;;;;;;19.93;60.55;100883.69;453535;117;922289;-76
2022/06/20 03:34:01;;;;;;;4.66;3.43;;;;;;;19.94;60.54;100877.06;457617;114;930491;-76
2022/06/20 03:35:05;;;;;;;3.89;3.42;;;;;;;19.96;60.49;100877.60;452539;117;922434;-76
2022/06/20 03:36:13;;;;;;;5.82;3.51;;;;;;;19.97;60.48;100882.88;452312;117;922459;-75
2022/06/20 03:37:16;;;;;;;6.71;3.49;;;;;;;20.00;60.43;100875.98;452296;117;922594;-75
2022/06/20 03:38:21;;;;;;;4.30;3.78;;;;;;;20.02;60.40;100870.98;452480;117;922409;-75
2022/06/20 03:39:24;;;;;;;4.41;3.42;;;;;;;20.03;60.35;100875.44;452330;117;922363;-75
2022/06/20 03:40:28;;;;;;;5.21;3.28;;;;;;;20.06;60.28;100877.67;452392;117;922368;-75
2022/06/20 03:41:31;;;;;;;4.61;3.34;;;;;;;20.08;60.26;100872.69;452316;117;930655;-75
2022/06/20 03:42:34;;;;;;;4.82;3.75;;;;;;;20.09;60.18;100871.58;452518;117;922415;-76
2022/06/20 03:43:39;;;;;;;3.05;2.74;;;;;;;20.11;60.11;100869.39;452518;117;922341;-75
2022/06/20 03:44:51;;;;;;;4.97;3.39;;;;;;;20.11;60.08;100866.62;452506;117;922474;-77
2022/06/20 03:46:04;;;;;;;4.49;2.98;;;;;;;20.12;60.06;100868.30;452078;117;922495;-75
2022/06/20 03:47:17;;;;;;;4.69;3.23;;;;;;;20.14;60.00;100871.60;452237;117;923045;-76
2022/06/20 03:48:37;;;;;;;4.16;3.23;;;;;;;20.26;59.99;100868.60;478023;110;946865;-76
2022/06/20 03:49:43;;;;;;;3.79;3.25;;;;;;;20.15;59.95;100870.50;472197;112;923197;-77
2022/06/20 03:51:04;;;;;;;3.65;2.84;;;;;;;20.17;59.96;100867.47;462560;114;922423;-76
2022/06/20 03:52:36;;;;;;;2.55;2.34;;;;;;;20.18;60.00;100872.72;465866;112;922806;-77
2022/06/20 03:53:46;;;;;;;2.84;2.42;;;;;;;20.21;60.00;100869.42;472062;112;922293;-78
2022/06/20 03:55:00;;;;;;;3.33;2.85;;;;;;;20.23;60.00;100864.42;471141;112;922214;-75
2022/06/20 03:56:12;;;;;;;4.11;2.87;;;;;;;20.25;59.96;100870.53;471880;112;922253;-75
2022/06/20 03:57:25;;;;;;;3.01;2.73;;;;;;;20.26;59.91;100869.44;472108;112;922270;-76
2022/06/20 03:58:32;;;;;;;3.92;2.58;;;;;;;20.27;59.87;100873.88;472208;112;922180;-76
2022/06/20 03:59:41;;;;;;;2.69;2.24;;;;;;;20.29;59.86;100876.35;471250;112;923030;-75
2022/06/20 04:01:00;;;;;;;3.01;2.35;;;;;;;20.29;59.85;100871.64;471591;112;922567;-76
2022/06/20 04:02:10;;;;;;;3.21;2.37;;;;;;;20.31;59.86;100872.25;471609;112;922646;-76
2022/06/20 04:03:26;;;;;;;3.31;2.31;;;;;;;20.33;59.82;100871.98;463956;114;922665;-75
2022/06/20 04:04:36;;;;;;;2.91;2.36;;;;;;;20.35;59.86;100876.13;470312;112;922518;-75
2022/06/20 04:05:45;;;;;;;2.62;2.42;;;;;;;20.37;59.86;100871.17;470722;112;922578;-76
2022/06/20 04:06:57;;;;;;;3.30;2.51;;;;;;;20.39;59.84;100873.67;471520;112;923043;-76
2022/06/20 04:08:03;;;;;;;2.74;2.53;;;;;;;20.40;59.90;100867.84;470773;112;922692;-75
2022/06/20 04:10:59;;;;;;;2.71;2.40;;;;;;;20.43;59.86;100874.78;471405;112;922668;-75
2022/06/20 04:12:08;;;;;;;3.48;2.59;;;;;;;20.44;59.90;100872.84;471551;112;923150;-75
2022/06/20 04:13:18;;;;;;;3.58;3.27;;;;;;;20.44;59.92;100868.14;471811;112;923057;-75
2022/06/20 04:14:27;;;;;;;3.63;2.78;;;;;;;20.47;60.02;100866.75;470938;112;922521;-76
2022/06/20 04:15:46;;;;;;;2.49;2.30;;;;;;;20.47;59.94;100869.52;471240;112;922563;-74
2022/06/20 04:16:56;;;;;;;3.24;2.45;;;;;;;20.49;59.95;100868.16;471513;112;922505;-75
2022/06/20 04:18:28;;;;;;;3.48;2.96;;;;;;;20.52;59.96;100869.53;471406;112;922419;-73
2022/06/20 04:19:35;;;;;;;3.83;2.53;;;;;;;20.54;59.96;100870.09;471490;112;922877;-76
2022/06/20 04:20:42;;;;;;;5.38;2.92;;;;;;;20.56;60.03;100860.42;470816;112;922621;-76
2022/06/20 04:21:55;;;;;;;3.55;3.22;;;;;;;20.59;60.01;100861.80;463030;114;922590;-75
2022/06/20 04:23:00;;;;;;;4.59;3.18;;;;;;;20.61;60.03;100862.36;463080;114;922628;-75
2022/06/20 04:24:19;;;;;;;3.91;3.52;;;;;;;20.65;60.01;100866.23;463071;112;922532;-76
2022/06/20 04:25:35;;;;;;;3.54;3.16;;;;;;;20.67;59.98;100866.81;470601;112;923329;-75
2022/06/20 04:26:41;;;;;;;4.99;2.97;;;;;;;20.70;60.02;100866.25;470594;112;922527;-75
2022/06/20 04:27:48;;;;;;;3.86;2.96;;;;;;;20.72;60.02;100866.81;471439;112;922618;-76
2022/06/20 04:29:01;;;;;;;4.36;3.20;;;;;;;20.75;60.00;100869.02;471427;112;923299;-75
2022/06/20 04:30:07;;;;;;;4.07;3.48;;;;;;;20.78;60.03;100866.52;464671;112;922740;-76
2022/06/20 04:31:20;;;;;;;5.24;3.27;;;;;;;20.80;59.96;100861.55;463149;114;922764;-75
2022/06/20 04:32:26;;;;;;;4.63;2.86;;;;;;;20.84;59.87;100859.05;463151;114;923111;-75
2022/06/20 04:33:45;;;;;;;5.59;3.37;;;;;;;20.88;59.86;100862.12;463120;114;922547;-75
2022/06/20 04:35:01;;;;;;;4.70;3.24;;;;;;;20.90;59.82;100866.26;463134;114;922844;-75
2022/06/20 04:36:25;;;;;;;4.29;3.29;;;;;;;20.94;59.77;100853.53;463155;114;922684;-75
2022/06/20 04:37:31;;;;;;;4.23;3.37;;;;;;;20.98;59.72;100857.41;463173;114;922538;-75
2022/06/20 04:38:38;;;;;;;4.83;3.39;;;;;;;21.00;59.74;100855.20;463123;114;922597;-75
2022/06/20 04:40:06;;;;;;;3.58;3.15;;;;;;;21.03;59.70;100857.41;462694;114;923442;-76
2022/06/20 04:41:18;;;;;;;3.43;3.13;;;;;;;21.06;59.65;100862.38;462643;114;922535;-75
2022/06/20 04:42:44;;;;;;;4.10;3.49;;;;;;;21.10;59.55;100859.91;462811;114;922787;-76
2022/06/20 04:43:53;;;;;;;5.33;3.23;;;;;;;21.11;59.50;100856.86;462447;114;922588;-75
2022/06/20 04:45:03;;;;;;;4.89;3.37;;;;;;;21.14;59.48;100861.88;462908;114;922516;-74
2022/06/20 04:46:28;;;;;;;5.26;3.10;;;;;;;21.16;59.41;100856.89;462150;114;923070;-75
2022/06/20 04:47:35;;;;;;;4.08;3.27;;;;;;;21.19;59.41;100853.55;462683;114;922616;-76
2022/06/20 04:48:38;;;;;;;3.69;3.26;;;;;;;21.23;59.37;100853.80;462991;114;922553;-74
2022/06/20 04:49:41;;;;;;;4.71;4.31;;;;;;;21.27;59.35;100854.10;463274;114;923313;-75
2022/06/20 04:50:47;;;;;;;4.14;3.52;;;;;;;21.29;59.37;100849.92;463291;114;922834;-74
2022/06/20 04:51:50;;;;;;;4.32;3.92;;;;;;;21.32;59.36;100856.87;462262;114;922626;-75
2022/06/20 04:52:57;;;;;;;4.97;4.38;;;;;;;21.35;59.32;100851.58;463248;114;922671;-75
2022/06/20 04:54:02;;;;;;;6.41;4.04;;;;;;;21.38;59.38;100852.98;462517;114;922556;-75
2022/06/20 04:55:05;;;;;;;4.48;3.59;;;;;;;21.40;59.40;100859.06;463174;114;922577;-76
2022/06/20 04:56:12;;;;;;;4.72;3.70;;;;;;;21.42;59.41;100854.08;463192;114;922607;-75
2022/06/20 04:57:15;;;;;;;7.44;3.17;;;;;;;21.45;59.38;100856.27;463002;114;922581;-75
2022/06/20 04:58:25;;;;;;;4.38;3.18;;;;;;;21.47;59.32;100856.84;463196;114;922662;-76
2022/06/20 04:59:30;;;;;;;5.46;3.27;;;;;;;21.50;59.42;100864.61;462957;114;931022;-75
2022/06/20 05:00:42;;;;;;;3.49;2.84;;;;;;;21.52;59.42;100856.82;462988;114;923280;-76
2022/06/20 05:01:45;;;;;;;6.11;2.31;;;;;;;21.54;59.34;100854.61;462965;114;922609;-75
2022/06/20 05:02:51;;;;;;;2.58;2.16;;;;;;;21.56;59.16;100853.20;463139;114;923363;-75
2022/06/20 05:03:59;;;;;;;2.68;1.93;;;;;;;21.60;59.03;100857.10;462312;114;923778;-74
2022/06/20 05:05:06;;;;;;;3.55;2.29;;;;;;;21.63;59.02;100856.52;462620;114;922542;-74
2022/06/20 05:06:13;;;;;;;2.70;1.82;;;;;;;21.66;58.95;100857.09;462962;114;922572;-73
2022/06/20 05:07:19;;;;;;;7.86;2.14;;;;;;;21.67;58.69;100848.45;462445;114;922643;-74
2022/06/20 05:08:35;;;;;;;3.31;1.59;;;;;;;21.70;58.62;100858.17;462937;114;922975;-76
2022/06/20 05:09:51;;;;;;;3.86;1.92;;;;;;;21.72;58.57;100856.80;462968;114;922605;-75
2022/06/20 05:10:57;;;;;;;2.47;1.68;;;;;;;21.76;58.28;100857.05;462956;114;922816;-76
2022/06/20 05:12:16;;;;;;;6.59;2.08;;;;;;;21.78;58.15;100858.41;462578;114;922874;-74
2022/06/20 05:13:34;;;;;;;2.45;1.67;;;;;;;21.82;58.05;100861.47;462678;114;922581;-74
2022/06/20 05:14:49;;;;;;;1.79;1.62;;;;;;;21.85;57.90;100858.95;462521;114;922786;-76
2022/06/20 05:15:53;;;;;;;2.33;1.80;;;;;;;21.87;57.91;100859.52;453904;114;922737;-75
2022/06/20 05:16:57;;;;;;;3.73;1.59;;;;;;;21.90;57.86;100858.10;463091;112;922474;-75
2022/06/20 05:18:03;;;;;;;1.97;1.71;;;;;;;21.93;57.82;100858.39;463221;114;922698;-75